Time;durP1;ratioP1;P1;durP2;ratioP2;P2;SDS_P1;SDS_P2;PMS_P1;PMS_P2;Temp;Humidity;BMP_temperature;BMP_pressure;BME280_temperature;BME280_humidity;BME280_pressure;Samples;Min_cycle;Max_cycle;Signal;HPM_P1;HPM_P2
2023/12/10 00:00:59;;;;;;;13.13;7.88;;;8.60;99.90;;;;;;5122679;28;20032;-76
2023/12/10 00:03:26;;;;;;;12.65;7.22;;;8.50;99.90;;;;;;5123608;28;20039;-76
2023/12/10 00:05:51;;;;;;;15.38;6.28;;;8.50;99.90;;;;;;5121565;28;20040;-76
2023/12/10 00:08:18;;;;;;;14.57;6.22;;;8.50;99.90;;;;;;5106152;28;20069;-76
2023/12/10 00:10:44;;;;;;;10.95;6.38;;;8.40;99.90;;;;;;5104887;28;20075;-75
2023/12/10 00:13:10;;;;;;;15.15;6.13;;;8.30;99.90;;;;;;5124230;28;20051;-75
2023/12/10 00:15:37;;;;;;;15.00;5.43;;;8.30;99.90;;;;;;5124401;28;20104;-75
2023/12/10 00:18:04;;;;;;;16.08;6.28;;;8.30;99.90;;;;;;5120581;28;20069;-74
2023/12/10 00:20:30;;;;;;;12.70;6.10;;;8.30;99.90;;;;;;5106499;28;20518;-74
2023/12/10 00:22:56;;;;;;;13.90;6.72;;;8.30;99.90;;;;;;5123046;28;20059;-75
2023/12/10 00:25:21;;;;;;;19.40;6.05;;;8.20;99.90;;;;;;5123091;28;20047;-75
2023/12/10 00:27:47;;;;;;;13.45;5.60;;;8.20;99.90;;;;;;5121840;28;20051;-74
2023/12/10 00:30:15;;;;;;;12.85;5.53;;;8.20;99.90;;;;;;5123111;28;20043;-76
2023/12/10 00:32:41;;;;;;;9.95;5.68;;;8.30;99.90;;;;;;5120534;28;20043;-79
2023/12/10 00:35:07;;;;;;;14.80;6.28;;;8.30;99.90;;;;;;5121037;28;20043;-79
2023/12/10 00:37:32;;;;;;;15.38;6.55;;;8.40;99.90;;;;;;5122919;28;20054;-79
2023/12/10 00:39:59;;;;;;;18.13;5.43;;;8.40;99.90;;;;;;5121685;28;20043;-76
2023/12/10 00:42:25;;;;;;;10.07;4.20;;;8.40;99.90;;;;;;5122914;28;20090;-75
2023/12/10 00:44:51;;;;;;;11.70;4.78;;;8.40;99.90;;;;;;5108846;28;20036;-78
2023/12/10 00:47:16;;;;;;;9.32;4.57;;;8.40;99.90;;;;;;5123604;28;20144;-75
2023/12/10 00:49:43;;;;;;;16.08;4.93;;;8.40;99.90;;;;;;5122370;28;20074;-82
2023/12/10 00:52:08;;;;;;;13.90;5.45;;;8.40;99.90;;;;;;5122528;28;20514;-79
2023/12/10 00:54:34;;;;;;;14.00;5.32;;;8.40;99.90;;;;;;5122977;28;20065;-79
2023/12/10 00:57:00;;;;;;;12.80;5.72;;;8.40;99.90;;;;;;5121026;28;20043;-77
2023/12/10 00:59:26;;;;;;;10.00;3.97;;;8.50;99.90;;;;;;5122451;28;20043;-80
2023/12/10 01:01:52;;;;;;;13.18;6.38;;;8.50;99.90;;;;;;5119720;28;20035;-78
2023/12/10 01:04:18;;;;;;;13.25;4.85;;;8.50;99.90;;;;;;5122978;28;20054;-75
2023/12/10 01:06:45;;;;;;;15.43;8.23;;;8.50;99.90;;;;;;5122801;28;20425;-79
2023/12/10 01:09:11;;;;;;;14.63;5.57;;;8.50;99.90;;;;;;5120194;28;20031;-79
2023/12/10 01:11:37;;;;;;;13.13;10.35;;;8.50;99.90;;;;;;5121899;28;20066;-84
2023/12/10 01:14:03;;;;;;;13.70;5.20;;;8.50;99.90;;;;;;5119792;28;20062;-83
2023/12/10 01:16:29;;;;;;;15.38;13.45;;;8.40;99.90;;;;;;5123843;28;20114;-79
2023/12/10 01:18:55;;;;;;;14.70;7.32;;;8.40;99.90;;;;;;5102800;28;20098;-83
2023/12/10 01:21:21;;;;;;;11.65;5.85;;;8.30;99.90;;;;;;5105217;28;20096;-83
2023/12/10 01:23:49;;;;;;;10.40;5.45;;;8.30;99.90;;;;;;5121563;28;20075;-77
2023/12/10 01:26:15;;;;;;;14.18;13.07;;;8.30;99.90;;;;;;5121333;28;20107;-81
2023/12/10 01:28:40;;;;;;;11.30;8.85;;;8.20;99.90;;;;;;5123721;28;20051;-80
2023/12/10 01:31:06;;;;;;;9.57;8.05;;;8.20;99.90;;;;;;5103028;28;20038;-78
2023/12/10 01:33:32;;;;;;;11.50;7.20;;;8.10;99.90;;;;;;5123638;28;20039;-81
2023/12/10 01:35:57;;;;;;;13.18;7.68;;;8.00;99.90;;;;;;5105311;28;20036;-85
2023/12/10 01:38:23;;;;;;;13.43;6.28;;;7.90;99.90;;;;;;5122404;28;20035;-82
2023/12/10 01:40:49;;;;;;;9.40;7.07;;;7.90;99.90;;;;;;5120254;28;20051;-79
2023/12/10 01:43:18;;;;;;;13.52;11.60;;;7.90;99.90;;;;;;5122911;28;20074;-80
2023/12/10 01:45:52;;;;;;;14.27;12.90;;;7.80;99.90;;;;;;5123087;28;20059;-77
2023/12/10 01:48:20;;;;;;;15.10;13.95;;;7.80;99.90;;;;;;5121497;28;20043;-85
2023/12/10 01:50:47;;;;;;;13.48;12.30;;;7.80;99.90;;;;;;5122740;28;20036;-84
2023/12/10 01:53:14;;;;;;;15.40;13.77;;;7.70;99.90;;;;;;5121376;28;20081;-81
2023/12/10 01:55:41;;;;;;;14.65;13.45;;;7.70;99.90;;;;;;5121835;28;20073;-78
2023/12/10 01:58:08;;;;;;;17.45;14.40;;;7.70;99.90;;;;;;5120571;28;20048;-81
2023/12/10 02:00:35;;;;;;;24.83;22.92;;;7.70;99.90;;;;;;5122611;28;20031;-82
2023/12/10 02:03:02;;;;;;;20.83;19.52;;;7.70;99.90;;;;;;5123136;28;20047;-79
2023/12/10 02:05:29;;;;;;;18.30;16.92;;;7.70;99.90;;;;;;5119961;28;20055;-81
2023/12/10 02:07:55;;;;;;;19.10;17.30;;;7.60;99.90;;;;;;5104418;28;20054;-80
2023/12/10 02:10:20;;;;;;;13.45;12.02;;;7.60;99.90;;;;;;5120029;28;20120;-79
2023/12/10 02:12:48;;;;;;;17.30;15.88;;;7.60;99.90;;;;;;5122475;28;20502;-77
2023/12/10 02:15:18;;;;;;;20.45;18.88;;;7.60;99.90;;;;;;5121451;28;20092;-79
2023/12/10 02:17:48;;;;;;;16.13;14.38;;;7.60;99.90;;;;;;5122153;28;20040;-80
2023/12/10 02:20:16;;;;;;;22.88;21.17;;;7.50;99.90;;;;;;5122938;28;20035;-79
2023/12/10 02:22:45;;;;;;;16.48;15.07;;;7.60;99.90;;;;;;5106532;28;20047;-75
2023/12/10 02:25:13;;;;;;;14.52;13.40;;;7.50;99.90;;;;;;5121382;28;20043;-82
2023/12/10 02:27:39;;;;;;;21.55;19.17;;;7.50;99.90;;;;;;5119174;28;20047;-81
2023/12/10 02:30:06;;;;;;;17.30;15.93;;;7.50;99.90;;;;;;5122408;28;20426;-81
2023/12/10 02:32:32;;;;;;;14.20;12.90;;;7.50;99.90;;;;;;5122121;28;20044;-80
2023/12/10 02:34:57;;;;;;;15.80;14.38;;;7.50;99.90;;;;;;5120376;28;20097;-82
2023/12/10 02:37:23;;;;;;;22.85;21.10;;;7.50;99.90;;;;;;5121094;28;20044;-82
2023/12/10 02:39:49;;;;;;;14.85;12.93;;;7.50;99.90;;;;;;5118667;28;20044;-77
2023/12/10 02:42:16;;;;;;;22.98;20.92;;;7.50;99.90;;;;;;5121316;28;20126;-76
2023/12/10 02:44:41;;;;;;;14.23;12.90;;;7.50;99.90;;;;;;5120748;28;20044;-79
2023/12/10 02:47:07;;;;;;;15.60;11.85;;;7.50;99.90;;;;;;5104480;28;20424;-78
2023/12/10 02:49:33;;;;;;;15.30;13.98;;;7.50;99.90;;;;;;5120370;28;20039;-82
2023/12/10 02:51:58;;;;;;;14.73;13.15;;;7.50;99.90;;;;;;5123483;28;20040;-81
2023/12/10 02:54:24;;;;;;;31.83;30.00;;;7.50;99.90;;;;;;5125242;28;20044;-78
2023/12/10 02:56:50;;;;;;;19.65;18.02;;;7.40;99.90;;;;;;5123354;28;20053;-80
2023/12/10 02:59:15;;;;;;;18.10;16.58;;;7.40;99.90;;;;;;5125356;28;20059;-84
2023/12/10 03:01:41;;;;;;;19.45;15.73;;;7.40;99.90;;;;;;5123662;28;20480;-79
2023/12/10 03:04:07;;;;;;;22.05;20.35;;;7.40;99.90;;;;;;5124996;28;20048;-82
2023/12/10 03:06:32;;;;;;;19.33;14.38;;;7.50;99.90;;;;;;5122392;28;20044;-82
2023/12/10 03:08:58;;;;;;;19.58;17.77;;;7.50;99.90;;;;;;5124271;28;20047;-79
2023/12/10 03:11:24;;;;;;;22.98;21.38;;;7.40;99.90;;;;;;5123663;28;20066;-76
2023/12/10 03:13:49;;;;;;;15.48;13.85;;;7.40;99.90;;;;;;5122884;28;20132;-84
2023/12/10 03:16:15;;;;;;;14.23;13.13;;;7.50;99.90;;;;;;5125659;28;20042;-76
2023/12/10 03:18:41;;;;;;;20.73;18.98;;;7.50;99.90;;;;;;5123076;28;20061;-80
2023/12/10 03:21:07;;;;;;;14.10;12.85;;;7.50;99.90;;;;;;5125545;28;20511;-77
2023/12/10 03:23:32;;;;;;;21.10;19.45;;;7.50;99.90;;;;;;5124190;28;20040;-78
2023/12/10 03:25:58;;;;;;;20.98;19.23;;;7.50;99.90;;;;;;5124639;28;20044;-84
2023/12/10 03:28:24;;;;;;;32.85;30.77;;;7.50;99.90;;;;;;5107370;28;20040;-76
2023/12/10 03:30:49;;;;;;;24.15;22.40;;;7.50;99.90;;;;;;5124747;28;20069;-80
2023/12/10 03:33:15;;;;;;;17.10;15.90;;;7.50;99.90;;;;;;5124927;28;20142;-77
2023/12/10 03:35:41;;;;;;;40.65;38.13;;;7.40;99.90;;;;;;5121537;28;20044;-75
2023/12/10 03:38:06;;;;;;;16.98;15.88;;;7.40;99.90;;;;;;5125300;28;20059;-81
2023/12/10 03:40:32;;;;;;;17.42;15.82;;;7.40;99.90;;;;;;5105983;28;20092;-75
2023/12/10 03:42:58;;;;;;;22.23;20.70;;;7.40;99.90;;;;;;5103729;28;20051;-77
2023/12/10 03:45:23;;;;;;;13.95;12.85;;;7.30;99.90;;;;;;5114099;28;20047;-79
2023/12/10 03:47:49;;;;;;;19.50;18.00;;;7.30;99.90;;;;;;5124650;28;20055;-76
2023/12/10 03:50:16;;;;;;;16.60;15.20;;;7.30;99.90;;;;;;5107733;28;20048;-80
2023/12/10 03:52:41;;;;;;;44.20;41.78;;;7.20;99.90;;;;;;5122536;28;20090;-76
2023/12/10 03:55:08;;;;;;;22.83;21.42;;;7.30;99.90;;;;;;5125552;27;20054;-78
2023/12/10 03:57:34;;;;;;;22.33;20.65;;;7.30;99.90;;;;;;5122604;28;20051;-74
2023/12/10 04:00:00;;;;;;;24.02;20.40;;;7.30;99.90;;;;;;5125116;28;20043;-76
2023/12/10 04:02:26;;;;;;;15.65;14.35;;;7.20;99.90;;;;;;5123313;28;20074;-78
2023/12/10 04:04:51;;;;;;;19.30;18.08;;;7.20;99.90;;;;;;5123266;28;20031;-77
2023/12/10 04:07:17;;;;;;;17.40;15.93;;;7.20;99.90;;;;;;5106992;28;20130;-75
2023/12/10 04:09:43;;;;;;;18.35;16.92;;;7.20;99.90;;;;;;5121601;28;20047;-76
2023/12/10 04:12:08;;;;;;;23.45;21.80;;;7.20;99.90;;;;;;5123863;28;20130;-79
2023/12/10 04:14:34;;;;;;;14.68;13.50;;;7.20;99.90;;;;;;5121628;28;20054;-74
2023/12/10 04:17:00;;;;;;;19.30;17.63;;;7.20;99.90;;;;;;5125299;28;20399;-77
2023/12/10 04:19:25;;;;;;;14.45;11.25;;;7.20;99.90;;;;;;5123497;28;20044;-76
2023/12/10 04:21:51;;;;;;;17.23;15.73;;;7.20;99.90;;;;;;5122589;28;20046;-80
2023/12/10 04:24:17;;;;;;;16.33;14.98;;;7.20;99.90;;;;;;5106250;28;20132;-76
2023/12/10 04:26:43;;;;;;;16.65;15.35;;;7.20;99.90;;;;;;5121947;28;20050;-80
2023/12/10 04:29:08;;;;;;;12.68;11.48;;;7.20;99.90;;;;;;5123811;28;20032;-78
2023/12/10 04:31:36;;;;;;;24.20;22.55;;;7.20;99.90;;;;;;5118443;28;20505;-78
2023/12/10 04:34:02;;;;;;;12.77;9.48;;;7.20;99.90;;;;;;5104171;28;20431;-77
2023/12/10 04:36:28;;;;;;;17.45;16.13;;;7.20;99.90;;;;;;5120786;28;20496;-80
2023/12/10 04:38:53;;;;;;;13.95;9.90;;;7.20;99.90;;;;;;5119649;28;20032;-75
2023/12/10 04:41:19;;;;;;;13.60;12.18;;;7.20;99.90;;;;;;5102034;28;20104;-75
2023/12/10 04:43:47;;;;;;;19.23;17.85;;;7.20;99.90;;;;;;5116217;28;20185;-75
2023/12/10 04:46:13;;;;;;;10.35;9.32;;;7.20;99.90;;;;;;5123448;28;20039;-79
2023/12/10 04:48:39;;;;;;;12.13;10.95;;;7.30;99.90;;;;;;5121585;28;20096;-80
2023/12/10 04:51:05;;;;;;;19.52;18.05;;;7.30;99.90;;;;;;5106370;28;20107;-74
2023/12/10 04:53:30;;;;;;;18.77;17.25;;;7.30;99.90;;;;;;5104411;28;20096;-80
2023/12/10 04:55:56;;;;;;;11.75;10.63;;;7.30;99.90;;;;;;5124292;28;20040;-77
2023/12/10 04:58:22;;;;;;;13.35;12.25;;;7.30;99.90;;;;;;5124027;28;20031;-75
2023/12/10 05:00:47;;;;;;;12.68;10.63;;;7.30;99.90;;;;;;5122407;28;20054;-76
2023/12/10 05:03:13;;;;;;;14.70;13.57;;;7.30;99.90;;;;;;5123356;28;20054;-78
2023/12/10 05:05:39;;;;;;;18.42;17.02;;;7.40;99.90;;;;;;5103565;28;20043;-77
2023/12/10 05:08:06;;;;;;;13.68;12.30;;;7.40;99.90;;;;;;5122324;28;20039;-75
2023/12/10 05:10:31;;;;;;;11.35;10.23;;;7.40;99.90;;;;;;5104241;28;20122;-77
2023/12/10 05:12:57;;;;;;;20.98;19.50;;;7.40;99.90;;;;;;5109502;28;20110;-78
2023/12/10 05:15:23;;;;;;;20.58;18.77;;;7.50;99.90;;;;;;5122068;28;20079;-77
2023/12/10 05:17:48;;;;;;;15.07;13.77;;;7.50;99.90;;;;;;5121398;28;20407;-78
2023/12/10 05:20:14;;;;;;;14.43;13.20;;;7.50;99.90;;;;;;5122985;28;20039;-78
2023/12/10 05:22:40;;;;;;;25.05;23.52;;;7.40;99.90;;;;;;5120695;28;20051;-74
2023/12/10 05:25:07;;;;;;;15.45;14.05;;;7.50;99.90;;;;;;5122404;28;20040;-76
2023/12/10 05:27:32;;;;;;;15.95;14.57;;;7.40;99.90;;;;;;5120831;28;20071;-75
2023/12/10 05:29:59;;;;;;;18.67;17.20;;;7.40;99.90;;;;;;5122622;28;20051;-73
2023/12/10 05:32:27;;;;;;;16.08;14.57;;;7.40;99.90;;;;;;5123055;28;20048;-75
2023/12/10 05:34:53;;;;;;;25.90;24.45;;;7.50;99.90;;;;;;5121353;28;20043;-78
2023/12/10 05:37:19;;;;;;;20.95;19.42;;;7.40;99.90;;;;;;5121665;28;20094;-75
2023/12/10 05:39:45;;;;;;;16.70;15.43;;;7.50;99.90;;;;;;5102878;28;20055;-75
2023/12/10 05:42:10;;;;;;;21.58;19.90;;;7.50;99.90;;;;;;5122583;28;20071;-76
2023/12/10 05:44:36;;;;;;;20.50;18.92;;;7.50;99.90;;;;;;5120681;28;20035;-77
2023/12/10 05:47:02;;;;;;;18.90;17.80;;;7.50;99.90;;;;;;5122946;28;20051;-77
2023/12/10 05:49:29;;;;;;;19.95;18.40;;;7.50;99.90;;;;;;5121080;28;20039;-78
2023/12/10 05:51:55;;;;;;;21.05;19.85;;;7.50;99.90;;;;;;5122464;28;20039;-74
2023/12/10 05:54:21;;;;;;;20.38;19.10;;;7.50;99.90;;;;;;5122428;28;20043;-76
2023/12/10 05:56:46;;;;;;;32.85;30.90;;;7.50;99.90;;;;;;5120660;28;20062;-77
2023/12/10 05:59:12;;;;;;;19.65;18.27;;;7.60;99.90;;;;;;5123450;28;20051;-76
2023/12/10 06:01:38;;;;;;;27.17;25.77;;;7.60;99.90;;;;;;5119716;28;20054;-77
2023/12/10 06:04:03;;;;;;;20.00;18.83;;;7.60;99.90;;;;;;5123885;28;20065;-77
2023/12/10 06:06:29;;;;;;;19.42;18.33;;;7.60;99.90;;;;;;5120264;28;20055;-76
2023/12/10 06:08:55;;;;;;;20.30;19.20;;;7.70;99.90;;;;;;5122534;28;20044;-80
2023/12/10 06:11:21;;;;;;;28.60;26.85;;;7.70;99.90;;;;;;5120884;28;20111;-77
2023/12/10 06:13:47;;;;;;;20.98;19.58;;;7.60;99.90;;;;;;5102674;28;20415;-79
2023/12/10 06:16:13;;;;;;;18.58;17.48;;;7.60;99.90;;;;;;5121141;28;20057;-81
2023/12/10 06:18:39;;;;;;;21.83;20.33;;;7.60;99.90;;;;;;5119589;28;20052;-80
2023/12/10 06:21:05;;;;;;;19.40;18.02;;;7.60;99.90;;;;;;5123316;28;20050;-76
2023/12/10 06:23:31;;;;;;;18.55;16.85;;;7.70;99.90;;;;;;5103064;28;20062;-79
2023/12/10 06:25:56;;;;;;;23.20;21.83;;;7.70;99.90;;;;;;5120525;28;20039;-75
2023/12/10 06:28:22;;;;;;;17.73;16.38;;;7.70;99.90;;;;;;5122950;28;20044;-76
2023/12/10 06:30:48;;;;;;;19.67;18.38;;;7.70;99.90;;;;;;5119999;28;20055;-76
2023/12/10 06:33:13;;;;;;;20.20;19.30;;;7.70;99.90;;;;;;5085144;28;20071;-76
2023/12/10 06:35:39;;;;;;;19.90;18.58;;;7.70;99.90;;;;;;5119794;28;20075;-73
2023/12/10 06:38:05;;;;;;;19.42;18.23;;;7.70;99.90;;;;;;5121146;28;20071;-75
2023/12/10 06:40:30;;;;;;;17.85;16.80;;;7.80;99.90;;;;;;5121150;28;20047;-77
2023/12/10 06:42:56;;;;;;;15.52;14.68;;;7.80;99.90;;;;;;5121976;28;20093;-74
2023/12/10 06:45:22;;;;;;;17.48;16.45;;;7.80;99.90;;;;;;5121365;28;20048;-74
2023/12/10 06:47:48;;;;;;;21.20;19.67;;;7.80;99.90;;;;;;5120452;28;20100;-77
2023/12/10 06:50:13;;;;;;;20.95;19.58;;;7.80;99.90;;;;;;5121161;28;20100;-78
2023/12/10 06:52:39;;;;;;;17.48;16.27;;;7.80;99.90;;;;;;5118562;28;20484;-74
2023/12/10 06:55:05;;;;;;;17.48;16.17;;;7.80;99.90;;;;;;5121243;28;20063;-75
2023/12/10 06:57:31;;;;;;;20.55;18.67;;;7.80;99.90;;;;;;5119518;28;20047;-76
2023/12/10 06:59:56;;;;;;;17.98;16.88;;;7.80;99.90;;;;;;5121460;28;20085;-75
2023/12/10 07:02:22;;;;;;;21.40;20.13;;;7.90;99.90;;;;;;5100205;28;20139;-76
2023/12/10 07:04:51;;;;;;;20.98;19.63;;;7.90;99.90;;;;;;5118703;28;20055;-75
2023/12/10 07:07:16;;;;;;;20.15;18.90;;;7.90;99.90;;;;;;5122502;28;20472;-76
2023/12/10 07:09:42;;;;;;;20.30;18.88;;;7.90;99.90;;;;;;5118621;28;20078;-75
2023/12/10 07:12:08;;;;;;;20.65;19.08;;;7.90;99.90;;;;;;5104062;28;20085;-78
2023/12/10 07:14:33;;;;;;;21.17;19.83;;;7.90;99.90;;;;;;5118902;28;20028;-76
2023/12/10 07:16:59;;;;;;;21.40;19.63;;;7.90;99.90;;;;;;5122080;28;20047;-74
2023/12/10 07:19:25;;;;;;;22.55;20.92;;;7.80;99.90;;;;;;5119688;28;20460;-78
2023/12/10 07:21:52;;;;;;;18.60;17.67;;;7.90;99.90;;;;;;5120066;28;20051;-77
2023/12/10 07:24:20;;;;;;;18.48;17.42;;;7.80;99.90;;;;;;5120975;28;20047;-78
2023/12/10 07:26:46;;;;;;;20.35;18.75;;;7.80;99.90;;;;;;5120411;28;20059;-76
2023/12/10 07:29:12;;;;;;;20.90;19.73;;;7.80;99.90;;;;;;5121146;28;20044;-77
2023/12/10 07:31:37;;;;;;;23.40;21.95;;;7.90;99.90;;;;;;5118508;28;20495;-75
2023/12/10 07:34:04;;;;;;;20.60;19.58;;;7.80;99.90;;;;;;5122243;28;20031;-76
2023/12/10 07:36:29;;;;;;;23.25;22.25;;;7.80;99.90;;;;;;5119926;28;20130;-76
2023/12/10 07:38:55;;;;;;;20.70;19.55;;;7.80;99.90;;;;;;5122746;28;20067;-78
2023/12/10 07:41:21;;;;;;;24.30;23.23;;;7.80;99.90;;;;;;5097951;28;20482;-77
2023/12/10 07:43:47;;;;;;;26.67;25.30;;;7.80;99.90;;;;;;5123095;28;20048;-74
2023/12/10 07:46:13;;;;;;;29.27;27.95;;;7.80;99.90;;;;;;5124369;28;20050;-75
2023/12/10 07:48:38;;;;;;;30.95;29.55;;;8.00;99.90;;;;;;5122724;28;20055;-75
2023/12/10 07:51:04;;;;;;;27.02;25.77;;;7.70;99.90;;;;;;5124585;28;20402;-78
2023/12/10 07:53:30;;;;;;;30.40;28.95;;;7.70;99.90;;;;;;5122647;28;20058;-75
2023/12/10 07:55:56;;;;;;;31.83;30.50;;;7.70;99.90;;;;;;5123847;28;20506;-76
2023/12/10 07:58:24;;;;;;;32.13;30.52;;;7.70;99.90;;;;;;5107196;28;20043;-77
2023/12/10 08:00:50;;;;;;;30.02;28.65;;;7.70;99.90;;;;;;5123482;28;20035;-76
2023/12/10 08:03:16;;;;;;;29.17;27.85;;;7.70;99.90;;;;;;5125060;28;20062;-75
2023/12/10 08:05:42;;;;;;;32.95;31.38;;;7.70;99.90;;;;;;5122232;28;20035;-76
2023/12/10 08:08:08;;;;;;;30.75;29.25;;;7.70;99.90;;;;;;5106239;28;20055;-77
2023/12/10 08:10:34;;;;;;;31.50;29.90;;;7.70;99.90;;;;;;5122169;28;20036;-74
2023/12/10 08:12:59;;;;;;;30.90;29.60;;;7.70;99.90;;;;;;5123682;28;20522;-75
2023/12/10 08:15:26;;;;;;;31.15;29.30;;;7.70;99.90;;;;;;5123409;28;20055;-76
2023/12/10 08:17:52;;;;;;;31.38;29.75;;;7.70;99.90;;;;;;5122433;28;20065;-75
2023/12/10 08:20:18;;;;;;;31.58;30.15;;;7.70;99.90;;;;;;5124493;28;20097;-79
2023/12/10 08:22:43;;;;;;;30.15;28.60;;;7.70;99.90;;;;;;5122144;28;20070;-79
2023/12/10 08:25:10;;;;;;;29.33;27.73;;;7.70;99.90;;;;;;5125001;28;20099;-76
2023/12/10 08:27:35;;;;;;;28.75;27.60;;;7.70;99.90;;;;;;5122505;28;20043;-78
2023/12/10 08:30:02;;;;;;;29.73;28.05;;;7.70;99.90;;;;;;5123481;28;20043;-75
2023/12/10 08:32:27;;;;;;;33.58;31.75;;;7.70;99.90;;;;;;5122738;28;20051;-74
2023/12/10 08:34:53;;;;;;;26.45;25.25;;;7.70;99.90;;;;;;5115653;27;20077;-77
2023/12/10 08:37:19;;;;;;;23.90;22.70;;;7.70;99.90;;;;;;5120441;28;20598;-76
2023/12/10 08:39:48;;;;;;;31.98;30.58;;;7.70;99.90;;;;;;5102585;28;20042;-77
2023/12/10 08:42:13;;;;;;;31.02;29.58;;;7.70;99.90;;;;;;5119522;28;20046;-75
2023/12/10 08:44:39;;;;;;;29.30;27.73;;;7.70;99.90;;;;;;5103574;28;20047;-74
2023/12/10 08:47:05;;;;;;;33.38;31.75;;;7.70;99.90;;;;;;5104041;28;20050;-74
2023/12/10 08:49:31;;;;;;;33.13;31.33;;;7.60;99.90;;;;;;5119238;28;20100;-73
2023/12/10 08:51:59;;;;;;;32.67;31.13;;;7.60;99.90;;;;;;5121074;28;20108;-75
2023/12/10 08:54:25;;;;;;;39.22;37.33;;;7.60;99.90;;;;;;5122031;28;20047;-76
2023/12/10 08:56:51;;;;;;;39.70;37.50;;;7.60;99.90;;;;;;5121606;28;20103;-76
2023/12/10 08:59:17;;;;;;;36.05;34.20;;;7.60;99.90;;;;;;5105498;28;20052;-74
2023/12/10 09:01:43;;;;;;;35.78;34.17;;;7.60;99.90;;;;;;5118657;28;20054;-77
2023/12/10 09:04:09;;;;;;;38.50;36.42;;;7.70;99.90;;;;;;5104328;28;20043;-77
2023/12/10 09:06:34;;;;;;;35.28;32.95;;;7.60;99.90;;;;;;5121234;28;20048;-75
2023/12/10 09:09:00;;;;;;;36.17;34.17;;;7.60;99.90;;;;;;5120449;28;20118;-79
2023/12/10 09:11:26;;;;;;;35.90;34.10;;;7.60;99.90;;;;;;5121108;28;20112;-74
2023/12/10 09:13:52;;;;;;;32.50;30.77;;;7.60;99.90;;;;;;5118356;28;20052;-74
2023/12/10 09:16:18;;;;;;;36.50;34.80;;;7.60;99.90;;;;;;5121186;28;20043;-72
2023/12/10 09:18:44;;;;;;;36.10;34.05;;;7.60;99.90;;;;;;5118993;28;20079;-75
2023/12/10 09:21:10;;;;;;;39.10;36.72;;;7.70;99.90;;;;;;5104522;28;20043;-76
2023/12/10 09:23:36;;;;;;;39.25;37.35;;;7.20;99.90;;;;;;5121356;28;20086;-74
2023/12/10 09:26:02;;;;;;;36.53;34.60;;;7.70;99.90;;;;;;5119291;28;20047;-75
2023/12/10 09:28:28;;;;;;;38.65;36.55;;;7.60;99.90;;;;;;5122195;28;20096;-73
2023/12/10 09:30:54;;;;;;;39.97;37.90;;;7.60;99.90;;;;;;5119526;28;20078;-75
2023/12/10 09:33:19;;;;;;;41.75;39.38;;;7.60;99.90;;;;;;5122562;28;20050;-78
2023/12/10 09:35:45;;;;;;;40.28;37.90;;;7.60;99.90;;;;;;5119187;28;20040;-76
2023/12/10 09:38:11;;;;;;;36.28;34.25;;;7.70;99.90;;;;;;5120202;28;20040;-76
2023/12/10 09:40:38;;;;;;;42.50;39.58;;;7.70;99.90;;;;;;5120136;28;20089;-75
2023/12/10 09:43:04;;;;;;;41.13;38.63;;;7.70;99.90;;;;;;5118445;28;20069;-74
2023/12/10 09:45:30;;;;;;;38.90;36.33;;;7.70;99.90;;;;;;5119711;27;20051;-76
2023/12/10 09:47:55;;;;;;;43.72;40.75;;;7.70;99.90;;;;;;5116896;28;20126;-77
2023/12/10 09:50:23;;;;;;;41.72;38.60;;;7.60;99.90;;;;;;5119258;28;20058;-77
2023/12/10 09:52:49;;;;;;;40.22;37.40;;;7.70;99.90;;;;;;5119106;28;20105;-79
2023/12/10 09:55:17;;;;;;;38.80;37.05;;;7.70;99.90;;;;;;5120662;28;20075;-75
2023/12/10 09:57:42;;;;;;;41.78;39.53;;;7.70;99.90;;;;;;5118825;28;20043;-78
2023/12/10 10:00:09;;;;;;;40.17;37.30;;;7.60;99.90;;;;;;5103732;28;20062;-77
2023/12/10 10:02:36;;;;;;;33.83;32.17;;;7.70;99.90;;;;;;5119586;28;20043;-75
2023/12/10 10:05:03;;;;;;;38.05;35.13;;;7.70;99.90;;;;;;5118712;28;20095;-78
2023/12/10 10:07:29;;;;;;;37.10;34.80;;;7.60;99.90;;;;;;5120299;28;20077;-77
2023/12/10 10:09:55;;;;;;;36.75;34.72;;;7.70;99.90;;;;;;5114752;28;20043;-75
2023/12/10 10:12:21;;;;;;;33.25;30.90;;;7.70;99.90;;;;;;5120381;28;20062;-76
2023/12/10 10:14:58;;;;;;;35.10;32.97;;;7.70;99.90;;;;;;5118681;28;20054;-77
2023/12/10 10:17:30;;;;;;;36.10;33.35;;;7.70;99.90;;;;;;5121451;28;20439;-78
2023/12/10 10:19:57;;;;;;;31.70;29.45;;;7.70;99.90;;;;;;5121382;28;20052;-75
2023/12/10 10:22:27;;;;;;;35.92;33.13;;;7.70;99.90;;;;;;5120947;28;20058;-76
2023/12/10 10:24:53;;;;;;;35.08;32.33;;;7.70;99.90;;;;;;5103781;28;20478;-76
2023/12/10 10:27:20;;;;;;;35.40;33.25;;;7.70;99.90;;;;;;5119619;28;20069;-77
2023/12/10 10:29:48;;;;;;;35.90;33.42;;;7.60;99.90;;;;;;5120375;28;20064;-75
2023/12/10 10:32:18;;;;;;;32.28;29.45;;;7.70;99.90;;;;;;5119356;28;20063;-76
2023/12/10 10:34:45;;;;;;;30.40;28.05;;;7.60;99.90;;;;;;5119777;28;20048;-74
2023/12/10 10:37:11;;;;;;;28.40;26.35;;;7.70;99.90;;;;;;5120218;28;20028;-77
2023/12/10 10:39:37;;;;;;;24.73;23.38;;;7.60;99.90;;;;;;5100513;28;20069;-76
2023/12/10 10:42:07;;;;;;;27.38;25.70;;;7.60;99.90;;;;;;5121171;28;20091;-77
2023/12/10 10:44:40;;;;;;;31.77;29.48;;;7.70;99.90;;;;;;5119319;28;20047;-77
2023/12/10 10:47:07;;;;;;;26.75;24.80;;;7.70;99.90;;;;;;5120847;28;20062;-75
2023/12/10 10:49:36;;;;;;;26.15;24.13;;;7.70;99.90;;;;;;5119774;28;20580;-75
2023/12/10 10:52:04;;;;;;;26.75;24.50;;;7.70;99.90;;;;;;5119681;28;20052;-75
2023/12/10 10:54:32;;;;;;;27.67;25.42;;;7.70;99.90;;;;;;5120354;28;20518;-76
2023/12/10 10:56:58;;;;;;;22.95;21.13;;;7.70;99.90;;;;;;5120063;28;20536;-75
2023/12/10 10:59:31;;;;;;;22.77;20.95;;;7.60;99.90;;;;;;5121079;28;20056;-77
2023/12/10 11:02:08;;;;;;;24.20;22.10;;;7.60;99.90;;;;;;5117913;28;20050;-76
2023/12/10 11:04:37;;;;;;;20.17;18.38;;;7.70;99.90;;;;;;5120024;28;20047;-80
2023/12/10 11:07:05;;;;;;;26.05;21.92;;;7.70;99.90;;;;;;5121606;28;20035;-77
2023/12/10 11:09:31;;;;;;;23.75;21.45;;;7.70;99.90;;;;;;5101180;28;20043;-77
2023/12/10 11:11:58;;;;;;;22.88;21.13;;;7.60;99.90;;;;;;5121999;28;20126;-81
2023/12/10 11:14:25;;;;;;;22.45;20.77;;;7.70;99.90;;;;;;5122256;28;20494;-76
2023/12/10 11:16:54;;;;;;;22.33;20.38;;;7.70;99.90;;;;;;5124014;28;20077;-81
2023/12/10 11:19:22;;;;;;;25.58;23.55;;;7.70;99.90;;;;;;5116439;28;20043;-78
2023/12/10 11:21:49;;;;;;;25.50;23.60;;;7.60;99.90;;;;;;5124848;28;20059;-77
2023/12/10 11:24:15;;;;;;;24.02;22.02;;;7.70;99.90;;;;;;5105179;28;20047;-78
2023/12/10 11:26:41;;;;;;;24.88;22.85;;;7.70;99.90;;;;;;5102050;28;20097;-76
2023/12/10 11:29:07;;;;;;;25.05;22.40;;;7.70;99.90;;;;;;5125985;28;20906;-76
2023/12/10 11:31:34;;;;;;;20.20;18.52;;;7.70;99.90;;;;;;5122739;28;20054;-81
2023/12/10 11:34:00;;;;;;;27.38;18.80;;;7.80;99.90;;;;;;5124663;28;20047;-76
2023/12/10 11:36:26;;;;;;;17.20;15.68;;;7.80;99.90;;;;;;5123591;28;20035;-75
2023/12/10 11:38:51;;;;;;;15.30;13.82;;;7.80;99.90;;;;;;5123868;28;20054;-75
2023/12/10 11:41:18;;;;;;;14.75;12.10;;;7.90;99.90;;;;;;5090824;28;20039;-78
2023/12/10 11:43:45;;;;;;;14.98;13.13;;;7.90;99.90;;;;;;5124200;28;20074;-74
2023/12/10 11:46:26;;;;;;;13.98;10.30;;;7.90;99.90;;;;;;5107749;28;20055;-77
2023/12/10 11:48:54;;;;;;;16.65;9.68;;;7.90;99.90;;;;;;5120207;28;20031;-75
2023/12/10 11:51:20;;;;;;;14.52;9.88;;;7.90;99.90;;;;;;5125007;28;20047;-74
2023/12/10 11:53:46;;;;;;;11.60;7.15;;;8.00;99.90;;;;;;5121382;28;20118;-76
2023/12/10 11:56:12;;;;;;;12.07;6.63;;;8.00;99.90;;;;;;5123003;28;20084;-78
2023/12/10 11:58:41;;;;;;;14.57;7.50;;;8.00;99.90;;;;;;5123749;28;20071;-77
2023/12/10 12:01:07;;;;;;;13.15;7.25;;;8.10;99.90;;;;;;5120505;28;20103;-78
2023/12/10 12:03:34;;;;;;;11.23;6.20;;;8.10;99.90;;;;;;5124955;28;20070;-77
2023/12/10 12:06:00;;;;;;;10.50;6.93;;;8.20;99.90;;;;;;5122895;28;20055;-76
2023/12/10 12:08:27;;;;;;;14.00;6.03;;;8.20;99.90;;;;;;5122573;28;20078;-75
2023/12/10 12:10:54;;;;;;;20.75;7.68;;;8.20;99.90;;;;;;5122933;28;20122;-79
2023/12/10 12:13:20;;;;;;;10.55;5.90;;;8.20;99.90;;;;;;5120046;28;20075;-78
2023/12/10 12:15:52;;;;;;;11.45;5.90;;;8.10;99.90;;;;;;5123964;28;20592;-80
2023/12/10 12:18:24;;;;;;;11.55;5.93;;;8.10;99.90;;;;;;5122180;28;20050;-78
2023/12/10 12:20:50;;;;;;;11.50;7.07;;;8.10;99.90;;;;;;5124448;28;20054;-79
2023/12/10 12:23:17;;;;;;;11.88;6.28;;;8.10;99.90;;;;;;5121989;28;20074;-76
2023/12/10 12:25:43;;;;;;;11.95;6.45;;;8.10;99.90;;;;;;5123257;28;20035;-81
2023/12/10 12:28:09;;;;;;;19.17;6.82;;;8.10;99.90;;;;;;5125183;28;20122;-78
2023/12/10 12:30:36;;;;;;;14.40;6.28;;;8.10;99.90;;;;;;5122024;28;20054;-78
2023/12/10 12:33:02;;;;;;;17.65;6.53;;;8.10;99.90;;;;;;5123512;28;20094;-79